Terminal Aerodrome Forecast
Issued by NWS

Home | Current Version | Previous Version | Text Only | Print | Product List | Glossary On
Versions: 1 2 3 4 5 6 7 8 9 10 11 12 13 14 15 16 17 18 19 20 21 22
982
FTUS42 KFFC 262342
TAFFTY
TAF
KFTY 262342Z 2700/2724 17010KT P6SM SCT250
     FM270200 16006KT P6SM BKN250
     FM270900 16006KT P6SM BKN025
     FM271200 17009KT P6SM VCSH BKN015
     FM271400 17012G20KT 6SM -SHRA BR SCT012 BKN025 PROB30 2714/2717
      VRB15G30KT 4SM -TSRA BR BKN012CB
     FM271700 21013G24KT 6SM -RA BR BKN025
     FM272000 24012KT P6SM SCT050 BKN100=

USA.gov is the U.S. government's official web portal to all federal, state and local government web resources and services.